createdAt,value
2017-10-01T00:01:37.057Z,21.62
2017-10-01T00:03:39.513Z,21.63
2017-10-01T00:05:41.959Z,21.55
2017-10-01T00:07:44.407Z,21.57
2017-10-01T00:09:46.855Z,21.60
2017-10-01T00:11:49.287Z,21.66
2017-10-01T00:13:51.729Z,21.70
2017-10-01T00:15:54.190Z,21.68
2017-10-01T00:17:56.642Z,21.62
2017-10-01T00:19:59.076Z,21.63
2017-10-01T00:22:01.524Z,21.67
2017-10-01T00:24:03.956Z,21.68
2017-10-01T00:26:06.435Z,21.60
2017-10-01T00:28:08.989Z,21.60
2017-10-01T00:30:11.447Z,21.55
2017-10-01T00:32:13.992Z,21.54
2017-10-01T00:34:16.467Z,21.54
2017-10-01T00:36:18.909Z,21.54
2017-10-01T00:38:21.349Z,21.55
2017-10-01T00:40:24.327Z,21.49
2017-10-01T00:42:26.796Z,21.57
2017-10-01T00:44:29.265Z,21.56
2017-10-01T00:46:31.737Z,21.60
2017-10-01T00:48:34.187Z,21.55
2017-10-01T00:50:36.625Z,21.61
2017-10-01T00:52:39.095Z,21.61
2017-10-01T00:54:41.528Z,21.59
2017-10-01T00:56:43.957Z,21.58
2017-10-01T00:58:46.457Z,21.51
2017-10-01T01:00:48.912Z,21.55
2017-10-01T01:02:51.438Z,21.57
2017-10-01T01:04:53.901Z,21.59
2017-10-01T01:06:56.340Z,21.57
2017-10-01T01:08:58.805Z,21.61
2017-10-01T01:11:01.260Z,21.57
2017-10-01T01:13:03.699Z,21.53
2017-10-01T01:15:06.352Z,21.52
2017-10-01T01:17:08.986Z,21.53
2017-10-01T01:19:11.411Z,21.53
2017-10-01T01:21:13.847Z,21.51
2017-10-01T01:23:16.300Z,21.49
2017-10-01T01:25:18.767Z,21.66
2017-10-01T01:27:21.209Z,21.59
2017-10-01T01:29:23.676Z,21.51
2017-10-01T01:31:26.103Z,21.52
2017-10-01T01:33:28.686Z,21.53
2017-10-01T01:35:31.168Z,21.61
2017-10-01T01:37:33.614Z,21.55
2017-10-01T01:39:36.055Z,21.54
2017-10-01T01:41:38.616Z,21.60
2017-10-01T01:43:41.057Z,21.56
2017-10-01T01:45:43.493Z,21.59
2017-10-01T01:47:45.952Z,21.54
2017-10-01T01:49:48.400Z,21.49
2017-10-01T01:51:50.878Z,21.47
2017-10-01T01:53:53.362Z,21.51
2017-10-01T01:55:55.805Z,21.49
2017-10-01T01:57:58.255Z,21.55
2017-10-01T02:00:00.762Z,21.44
2017-10-01T02:02:03.244Z,21.40
2017-10-01T02:04:05.704Z,21.46
2017-10-01T02:06:08.168Z,21.49
2017-10-01T02:08:10.748Z,21.52
2017-10-01T02:10:13.192Z,21.48
2017-10-01T02:12:15.660Z,21.52
2017-10-01T02:14:18.092Z,21.49
2017-10-01T02:16:20.529Z,21.48
2017-10-01T02:18:22.982Z,21.52
2017-10-01T02:20:25.431Z,21.50
2017-10-01T02:22:27.868Z,21.49
2017-10-01T02:24:30.396Z,21.44
2017-10-01T02:26:32.828Z,21.52
2017-10-01T02:28:35.354Z,21.41
2017-10-01T02:30:37.816Z,21.42
2017-10-01T02:32:40.276Z,21.40
2017-10-01T02:34:42.725Z,21.39
2017-10-01T02:36:45.189Z,21.39
2017-10-01T02:38:47.626Z,21.41
2017-10-01T02:40:50.180Z,21.47
2017-10-01T02:42:52.848Z,21.48
2017-10-01T02:44:55.296Z,21.51
2017-10-01T02:46:57.736Z,21.48
2017-10-01T02:49:00.206Z,21.43
2017-10-01T02:51:02.649Z,21.42
2017-10-01T02:53:05.096Z,21.35
2017-10-01T02:55:07.555Z,21.40
2017-10-01T02:57:10.000Z,21.39
2017-10-01T02:59:12.512Z,21.32
2017-10-01T03:01:15.068Z,21.29
2017-10-01T03:03:17.533Z,21.39
2017-10-01T03:05:19.971Z,21.50
2017-10-01T03:07:22.539Z,21.50
2017-10-01T03:09:24.980Z,21.44
2017-10-01T03:11:27.418Z,21.43
2017-10-01T03:13:29.875Z,21.44
2017-10-01T03:15:32.324Z,21.33
2017-10-01T03:17:34.756Z,21.38
2017-10-01T03:19:37.240Z,21.33
2017-10-01T03:21:39.681Z,21.33
2017-10-01T03:23:42.137Z,21.40
2017-10-01T03:25:44.616Z,21.37
2017-10-01T03:27:47.077Z,21.47
2017-10-01T03:29:49.521Z,21.50
2017-10-01T03:31:51.996Z,21.42
2017-10-01T03:33:54.493Z,21.44
2017-10-01T03:35:56.960Z,21.42
2017-10-01T03:37:59.437Z,21.40
2017-10-01T03:40:01.879Z,21.46
2017-10-01T03:42:04.366Z,21.52
2017-10-01T03:44:06.935Z,21.48
2017-10-01T03:46:09.375Z,21.39
2017-10-01T03:48:11.805Z,21.40
2017-10-01T03:50:14.257Z,21.35
2017-10-01T03:52:16.700Z,21.25
2017-10-01T03:54:19.140Z,21.25
2017-10-01T03:56:21.599Z,21.22
2017-10-01T03:58:24.052Z,21.24
2017-10-01T04:00:26.497Z,21.31
2017-10-01T04:02:28.974Z,21.29
2017-10-01T04:04:31.404Z,21.32
2017-10-01T04:06:33.912Z,21.20
2017-10-01T04:08:37.023Z,21.29
2017-10-01T04:10:39.469Z,21.25
2017-10-01T04:12:41.905Z,21.24
2017-10-01T04:14:44.370Z,21.32
2017-10-01T04:16:46.807Z,21.28
2017-10-01T04:18:49.344Z,21.25
2017-10-01T04:20:51.824Z,21.23
2017-10-01T04:22:54.351Z,21.16
2017-10-01T04:24:56.788Z,21.30
2017-10-01T04:26:59.332Z,21.26
2017-10-01T04:29:01.802Z,21.29
2017-10-01T04:31:04.260Z,21.39
2017-10-01T04:33:06.714Z,21.37
2017-10-01T04:35:09.147Z,21.37
2017-10-01T04:37:11.584Z,21.36
2017-10-01T04:39:14.040Z,21.41
2017-10-01T04:41:16.518Z,21.49
2017-10-01T04:43:18.948Z,21.50
2017-10-01T04:45:21.543Z,21.51
2017-10-01T04:47:24.030Z,21.41
2017-10-01T04:49:26.496Z,21.42
2017-10-01T04:51:28.967Z,21.39
2017-10-01T04:53:31.415Z,21.33
2017-10-01T04:55:33.868Z,21.37
2017-10-01T04:57:36.328Z,21.39
2017-10-01T04:59:38.865Z,21.26
2017-10-01T05:01:41.308Z,21.29
2017-10-01T05:03:43.761Z,21.26
2017-10-01T05:05:46.275Z,21.24
2017-10-01T05:07:48.708Z,21.24
2017-10-01T05:09:51.168Z,21.21
2017-10-01T05:11:53.600Z,21.23
2017-10-01T05:13:56.040Z,21.23
2017-10-01T05:15:58.529Z,21.25
2017-10-01T05:18:00.988Z,21.07
2017-10-01T05:20:03.436Z,21.25
2017-10-01T05:22:05.895Z,21.27
2017-10-01T05:24:08.355Z,21.26
2017-10-01T05:26:10.784Z,21.23
2017-10-01T05:28:13.336Z,21.02
2017-10-01T05:30:15.767Z,21.13
2017-10-01T05:32:18.208Z,21.06
2017-10-01T05:34:20.744Z,21.14
2017-10-01T05:36:23.182Z,21.13
2017-10-01T05:38:25.623Z,21.13
2017-10-01T05:40:28.079Z,21.19
2017-10-01T05:42:30.513Z,21.26
2017-10-01T05:44:32.987Z,21.24
2017-10-01T05:46:35.447Z,21.24
2017-10-01T05:48:37.882Z,21.17
2017-10-01T05:50:40.312Z,21.17
2017-10-01T05:52:42.877Z,21.19
2017-10-01T05:54:45.318Z,21.11
2017-10-01T05:56:47.752Z,21.19
2017-10-01T05:58:50.301Z,21.26
2017-10-01T06:00:52.746Z,21.12
2017-10-01T06:02:55.187Z,21.17
2017-10-01T06:04:57.649Z,21.25
2017-10-01T06:07:00.166Z,21.23
2017-10-01T06:09:02.612Z,21.27
2017-10-01T06:11:05.064Z,21.23
2017-10-01T06:13:07.568Z,21.28
2017-10-01T06:15:10.008Z,21.06
2017-10-01T06:17:12.464Z,21.13
2017-10-01T06:19:14.901Z,21.11
2017-10-01T06:21:17.349Z,21.23
2017-10-01T06:23:19.808Z,21.30
2017-10-01T06:25:22.252Z,21.29
2017-10-01T06:27:24.683Z,21.25
2017-10-01T06:29:27.149Z,21.19
2017-10-01T06:31:29.589Z,21.26
2017-10-01T06:33:32.051Z,21.27
2017-10-01T06:35:34.504Z,21.22
2017-10-01T06:37:36.945Z,21.10
2017-10-01T06:39:39.385Z,21.09
2017-10-01T06:41:41.856Z,21.20
2017-10-01T06:43:44.285Z,21.26
2017-10-01T06:45:46.805Z,21.24
2017-10-01T06:47:49.398Z,21.23
2017-10-01T06:49:51.928Z,21.15
2017-10-01T06:51:54.358Z,21.23
2017-10-01T06:53:56.829Z,21.30
2017-10-01T06:55:59.288Z,21.24
2017-10-01T06:58:01.820Z,21.12
2017-10-01T07:00:04.274Z,21.09
2017-10-01T07:02:06.778Z,21.25
2017-10-01T07:04:09.325Z,21.36
2017-10-01T07:06:11.781Z,21.35
2017-10-01T07:08:14.226Z,21.35
2017-10-01T07:10:16.735Z,21.35
2017-10-01T07:12:19.196Z,21.33
2017-10-01T07:14:21.644Z,21.36
2017-10-01T07:16:24.151Z,21.33
2017-10-01T07:18:26.628Z,21.40
2017-10-01T07:20:29.099Z,21.38
2017-10-01T07:22:31.552Z,21.45
2017-10-01T07:24:34.025Z,21.43
2017-10-01T07:26:36.495Z,21.23
2017-10-01T07:28:38.934Z,21.15
2017-10-01T07:30:41.406Z,21.27
2017-10-01T07:32:43.865Z,21.38
2017-10-01T07:34:46.378Z,21.33
2017-10-01T07:36:48.847Z,21.34
2017-10-01T07:38:51.300Z,21.27
2017-10-01T07:40:54.059Z,21.21
2017-10-01T07:42:56.521Z,21.28
2017-10-01T07:44:58.973Z,21.24
2017-10-01T07:47:01.432Z,21.21
2017-10-01T07:49:03.962Z,21.16
2017-10-01T07:51:06.393Z,21.21
2017-10-01T07:53:08.927Z,21.11
2017-10-01T07:55:11.397Z,21.15
2017-10-01T07:57:13.869Z,21.29
2017-10-01T07:59:16.295Z,21.20
2017-10-01T08:01:18.753Z,21.25
2017-10-01T08:03:21.285Z,21.28
2017-10-01T08:05:23.718Z,21.33
2017-10-01T08:07:26.199Z,21.06
2017-10-01T08:09:28.640Z,21.01
2017-10-01T08:11:31.164Z,21.27
2017-10-01T08:13:33.738Z,21.28
2017-10-01T08:15:36.201Z,21.30
2017-10-01T08:17:38.637Z,21.32
2017-10-01T08:19:42.070Z,21.38
2017-10-01T08:21:44.529Z,21.32
2017-10-01T08:23:46.996Z,21.39
2017-10-01T08:25:49.457Z,21.47
2017-10-01T08:27:51.910Z,21.45
2017-10-01T08:29:54.414Z,21.26
2017-10-01T08:31:56.875Z,21.29
2017-10-01T08:33:59.307Z,21.26
2017-10-01T08:36:01.745Z,21.32
2017-10-01T08:38:04.297Z,21.20
2017-10-01T08:40:06.754Z,21.31
2017-10-01T08:42:09.232Z,21.36
2017-10-01T08:44:11.702Z,21.32
2017-10-01T08:46:14.159Z,21.40
2017-10-01T08:48:16.599Z,21.41
2017-10-01T08:50:19.198Z,21.41
2017-10-01T08:52:21.638Z,21.45
2017-10-01T08:54:24.078Z,21.40
2017-10-01T08:56:26.528Z,21.44
2017-10-01T08:58:28.984Z,21.56
2017-10-01T09:00:31.428Z,21.56
2017-10-01T09:02:33.892Z,21.54
2017-10-01T09:04:36.334Z,21.55
2017-10-01T09:06:38.780Z,21.58
2017-10-01T09:08:41.257Z,21.55
2017-10-01T09:10:43.693Z,21.46
2017-10-01T09:12:46.130Z,21.53
2017-10-01T09:14:48.648Z,21.52
2017-10-01T09:16:51.112Z,21.60
2017-10-01T09:18:53.548Z,21.61
2017-10-01T09:20:56.023Z,21.62
2017-10-01T09:22:58.459Z,21.65
2017-10-01T09:25:00.895Z,21.57
2017-10-01T09:27:03.372Z,21.66
2017-10-01T09:29:05.820Z,21.62
2017-10-01T09:31:08.310Z,21.61
2017-10-01T09:33:10.780Z,21.64
2017-10-01T09:35:13.220Z,21.65
2017-10-01T09:37:15.721Z,21.68
2017-10-01T09:39:18.303Z,21.65
2017-10-01T09:41:20.741Z,21.66
2017-10-01T09:43:23.191Z,21.63
2017-10-01T09:45:25.649Z,21.64
2017-10-01T09:47:28.089Z,21.63
2017-10-01T09:49:30.544Z,21.53
2017-10-01T09:51:33.104Z,21.62
2017-10-01T09:53:35.541Z,21.69
2017-10-01T09:55:37.977Z,21.62
2017-10-01T09:57:40.451Z,21.69
2017-10-01T09:59:42.960Z,21.72
2017-10-01T10:01:45.403Z,21.75
2017-10-01T10:03:47.902Z,21.69
2017-10-01T10:05:50.399Z,21.70
2017-10-01T10:07:52.879Z,21.65
2017-10-01T10:09:55.363Z,21.68
2017-10-01T10:11:57.795Z,21.57
2017-10-01T10:14:00.257Z,21.73
2017-10-01T10:16:02.731Z,21.73
2017-10-01T10:18:05.177Z,21.83
2017-10-01T10:20:07.617Z,21.72
2017-10-01T10:22:10.165Z,21.72
2017-10-01T10:24:12.597Z,21.80
2017-10-01T10:26:15.104Z,21.89
2017-10-01T10:28:17.596Z,21.85
2017-10-01T10:30:20.046Z,21.79
2017-10-01T10:32:22.481Z,21.85
2017-10-01T10:34:25.055Z,21.87
2017-10-01T10:36:27.563Z,21.85
2017-10-01T10:38:30.013Z,21.81
2017-10-01T10:40:32.474Z,21.83
2017-10-01T10:42:35.208Z,21.88
2017-10-01T10:46:46.435Z,21.86
2017-10-01T10:48:48.879Z,21.83
2017-10-01T10:50:51.310Z,21.79
2017-10-01T10:52:54.274Z,21.79
2017-10-01T10:54:56.730Z,21.87
2017-10-01T10:56:59.168Z,21.80
2017-10-01T10:59:01.690Z,21.81
2017-10-01T11:01:04.160Z,21.88
2017-10-01T11:03:06.597Z,21.84
2017-10-01T11:05:09.056Z,21.91
2017-10-01T11:07:11.504Z,22.00
2017-10-01T11:09:14.080Z,22.00
2017-10-01T11:11:16.548Z,22.04
2017-10-01T11:13:18.988Z,21.97
2017-10-01T11:15:21.464Z,22.06
2017-10-01T11:17:23.936Z,22.09
2017-10-01T11:19:26.372Z,22.02
2017-10-01T11:21:28.808Z,21.97
2017-10-01T11:23:31.324Z,22.00
2017-10-01T11:25:33.756Z,22.04
2017-10-01T11:27:36.287Z,21.98
2017-10-01T11:29:38.807Z,22.00
2017-10-01T11:31:41.257Z,22.01
2017-10-01T11:33:43.782Z,22.01
2017-10-01T11:35:46.244Z,22.08
2017-10-01T11:37:48.716Z,22.04
2017-10-01T11:39:51.144Z,22.12
2017-10-01T11:41:53.830Z,22.10
2017-10-01T11:43:56.296Z,21.99
2017-10-01T11:45:58.741Z,22.03
2017-10-01T11:48:01.293Z,22.09
2017-10-01T11:50:03.732Z,22.13
2017-10-01T11:52:06.181Z,22.19
2017-10-01T11:54:08.816Z,22.15
2017-10-01T11:56:11.265Z,22.21
2017-10-01T11:58:13.712Z,22.20
2017-10-01T12:00:16.165Z,22.13
2017-10-01T12:02:18.687Z,22.14
2017-10-01T12:04:21.130Z,22.16
2017-10-01T12:06:23.609Z,22.20
2017-10-01T12:08:26.052Z,22.17
2017-10-01T12:10:28.556Z,22.18
2017-10-01T12:12:31.053Z,22.02
2017-10-01T12:14:33.492Z,22.11
2017-10-01T12:16:35.936Z,22.19
2017-10-01T12:18:38.440Z,22.22
2017-10-01T12:20:40.884Z,22.26
2017-10-01T12:22:43.380Z,22.20
2017-10-01T12:24:46.095Z,22.23
2017-10-01T12:26:48.523Z,22.18
2017-10-01T12:28:50.975Z,22.13
2017-10-01T12:30:53.435Z,22.23
2017-10-01T12:32:55.859Z,22.24
2017-10-01T12:34:58.292Z,22.27
2017-10-01T12:37:00.753Z,22.24
2017-10-01T12:39:03.202Z,22.30
2017-10-01T12:41:05.708Z,22.24
2017-10-01T12:43:08.184Z,22.28
2017-10-01T12:45:10.620Z,22.22
2017-10-01T12:47:13.127Z,22.25
2017-10-01T12:49:15.623Z,22.31
2017-10-01T12:51:18.060Z,22.25
2017-10-01T12:53:20.500Z,22.29
2017-10-01T12:55:23.134Z,22.30
2017-10-01T12:57:25.586Z,22.31
2017-10-01T12:59:28.044Z,22.31
2017-10-01T13:01:36.343Z,22.36
2017-10-01T13:03:38.782Z,22.35
2017-10-01T13:05:41.296Z,22.29
2017-10-01T13:07:43.756Z,22.26
2017-10-01T13:09:46.196Z,22.27
2017-10-01T13:11:48.633Z,22.30
2017-10-01T13:13:51.104Z,22.28
2017-10-01T13:15:53.532Z,22.33
2017-10-01T13:17:55.960Z,22.32
2017-10-01T13:19:58.430Z,22.32
2017-10-01T13:22:00.863Z,22.26
2017-10-01T13:24:03.304Z,22.26
2017-10-01T13:26:05.780Z,22.34
2017-10-01T13:28:08.265Z,22.36
2017-10-01T13:30:10.711Z,22.33
2017-10-01T13:32:13.183Z,22.36
2017-10-01T13:34:15.626Z,22.35
2017-10-01T13:36:18.148Z,22.31
2017-10-01T13:38:20.724Z,22.29
2017-10-01T13:40:23.168Z,22.31
2017-10-01T13:42:25.653Z,22.35
2017-10-01T13:44:28.164Z,22.30
2017-10-01T13:46:30.630Z,22.31
2017-10-01T13:48:33.071Z,22.33
2017-10-01T13:50:35.555Z,22.32
2017-10-01T13:52:38.000Z,22.36
2017-10-01T13:54:40.442Z,22.35
2017-10-01T13:56:43.032Z,22.38
2017-10-01T13:58:45.464Z,22.35
2017-10-01T14:00:47.907Z,22.24
2017-10-01T14:02:50.462Z,22.25
2017-10-01T14:04:52.908Z,22.27
2017-10-01T14:06:55.347Z,22.24
2017-10-01T14:08:57.815Z,22.26
2017-10-01T14:11:00.401Z,22.27
2017-10-01T14:13:02.852Z,22.28
2017-10-01T14:15:05.339Z,22.25
2017-10-01T14:17:07.831Z,22.29
2017-10-01T14:19:10.322Z,22.30
2017-10-01T14:21:12.789Z,22.28
2017-10-01T14:23:15.228Z,22.24
2017-10-01T14:25:17.667Z,22.29
2017-10-01T14:27:20.142Z,22.31
2017-10-01T14:29:22.573Z,22.33
2017-10-01T14:31:25.051Z,22.27
2017-10-01T14:33:27.627Z,22.19
2017-10-01T14:35:30.059Z,22.25
2017-10-01T14:37:32.525Z,22.22
2017-10-01T14:39:34.993Z,22.27
2017-10-01T14:41:37.497Z,22.23
2017-10-01T14:43:39.942Z,22.29
2017-10-01T14:45:42.451Z,22.30
2017-10-01T14:47:44.934Z,22.27
2017-10-01T14:49:47.393Z,22.27
2017-10-01T14:51:49.909Z,22.21
2017-10-01T14:53:52.420Z,22.27
2017-10-01T14:55:54.905Z,22.26
2017-10-01T14:57:57.446Z,22.26
2017-10-01T14:59:59.933Z,22.28
2017-10-01T15:02:02.366Z,22.23
2017-10-01T15:04:04.839Z,22.25
2017-10-01T15:06:07.341Z,22.26
2017-10-01T15:08:09.782Z,22.21
2017-10-01T15:10:12.259Z,22.21
2017-10-01T15:12:14.708Z,22.16
2017-10-01T15:14:17.145Z,22.19
2017-10-01T15:16:19.644Z,22.22
2017-10-01T15:18:22.082Z,22.20
2017-10-01T15:20:24.517Z,22.19
2017-10-01T15:22:26.976Z,22.19
2017-10-01T15:24:29.464Z,22.16
2017-10-01T15:26:31.906Z,22.19
2017-10-01T15:28:34.365Z,22.16
2017-10-01T15:30:36.838Z,22.17
2017-10-01T15:32:39.411Z,22.17
2017-10-01T15:34:41.868Z,22.16
2017-10-01T15:36:44.395Z,22.18
2017-10-01T15:38:46.911Z,22.14
2017-10-01T15:40:49.439Z,22.13
2017-10-01T15:42:51.885Z,22.15
2017-10-01T15:44:54.329Z,22.17
2017-10-01T15:46:56.833Z,22.13
2017-10-01T15:48:59.273Z,22.10
2017-10-01T15:51:01.714Z,22.07
2017-10-01T15:53:04.169Z,22.02
2017-10-01T15:55:06.600Z,22.11
2017-10-01T15:57:09.157Z,22.14
2017-10-01T15:59:12.036Z,22.11
2017-10-01T16:01:14.508Z,22.15
2017-10-01T16:03:16.964Z,22.13
2017-10-01T16:05:19.450Z,22.15
2017-10-01T16:07:21.922Z,22.08
2017-10-01T16:09:24.370Z,22.08
2017-10-01T16:11:26.853Z,22.06
2017-10-01T16:13:29.299Z,21.97
2017-10-01T16:15:31.747Z,22.04
2017-10-01T16:17:34.213Z,22.07
2017-10-01T16:19:36.653Z,22.06
2017-10-01T16:21:39.102Z,22.08
2017-10-01T16:23:41.628Z,22.10
2017-10-01T16:25:44.090Z,22.01
2017-10-01T16:27:46.545Z,22.04
2017-10-01T16:29:49.034Z,22.06
2017-10-01T16:31:51.483Z,21.99
2017-10-01T16:33:53.926Z,21.96
2017-10-01T16:35:56.394Z,21.97
2017-10-01T16:37:58.830Z,22.00
2017-10-01T16:40:01.376Z,21.94
2017-10-01T16:42:03.849Z,21.97
2017-10-01T16:44:06.281Z,21.92
2017-10-01T16:46:08.716Z,21.98
2017-10-01T16:48:11.263Z,22.01
2017-10-01T16:50:13.740Z,22.00
2017-10-01T16:52:16.172Z,22.01
2017-10-01T16:54:18.652Z,22.04
2017-10-01T16:56:21.136Z,22.03
2017-10-01T16:58:23.579Z,21.99
2017-10-01T17:00:26.175Z,21.95
2017-10-01T17:02:28.611Z,21.94
2017-10-01T17:04:31.120Z,21.92
2017-10-01T17:06:33.587Z,21.91
2017-10-01T17:08:36.021Z,21.93
2017-10-01T17:10:38.455Z,21.93
2017-10-01T17:12:40.960Z,21.85
2017-10-01T17:14:43.395Z,21.90
2017-10-01T17:16:45.901Z,21.87
2017-10-01T17:18:48.365Z,21.88
2017-10-01T17:20:50.809Z,21.91
2017-10-01T17:22:53.250Z,21.86
2017-10-01T17:24:55.717Z,21.89
2017-10-01T17:26:58.208Z,21.85
2017-10-01T17:29:00.651Z,21.91
2017-10-01T17:31:03.126Z,21.91
2017-10-01T17:33:05.568Z,21.89
2017-10-01T17:35:08.004Z,21.87
2017-10-01T17:37:10.468Z,21.88
2017-10-01T17:39:12.922Z,21.87
2017-10-01T17:41:15.358Z,21.88
2017-10-01T17:43:17.820Z,21.89
2017-10-01T17:45:20.279Z,21.86
2017-10-01T17:47:22.805Z,21.90
2017-10-01T17:49:25.360Z,21.92
2017-10-01T17:51:27.800Z,21.90
2017-10-01T17:53:30.328Z,21.90
2017-10-01T17:55:32.795Z,21.91
2017-10-01T17:57:35.348Z,21.88
2017-10-01T17:59:37.792Z,21.84
2017-10-01T18:01:40.481Z,21.82
2017-10-01T18:03:42.933Z,21.86
2017-10-01T18:05:45.436Z,21.79
2017-10-01T18:07:47.915Z,21.80
2017-10-01T18:09:50.362Z,21.80
2017-10-01T18:11:52.817Z,21.78
2017-10-01T18:13:55.285Z,21.77
2017-10-01T18:15:57.781Z,21.84
2017-10-01T18:18:00.273Z,21.76
2017-10-01T18:20:02.740Z,21.74
2017-10-01T18:22:05.168Z,21.76
2017-10-01T18:24:07.599Z,21.76
2017-10-01T18:26:10.072Z,21.79
2017-10-01T18:28:12.524Z,21.77
2017-10-01T18:30:14.965Z,21.79
2017-10-01T18:32:17.440Z,21.78
2017-10-01T18:34:19.932Z,21.77
2017-10-01T18:36:22.384Z,21.78
2017-10-01T18:38:24.846Z,21.71
2017-10-01T18:40:27.288Z,21.70
2017-10-01T18:42:30.058Z,21.75
2017-10-01T18:44:33.677Z,21.78
2017-10-01T18:46:36.637Z,21.78
2017-10-01T18:48:40.954Z,21.75
2017-10-01T18:50:43.462Z,21.82
2017-10-01T18:52:45.928Z,21.82
2017-10-01T18:54:48.364Z,21.85
2017-10-01T18:56:52.103Z,21.85
2017-10-01T18:58:54.648Z,21.78
2017-10-01T19:00:57.098Z,21.80
2017-10-01T19:02:59.601Z,21.77
2017-10-01T19:05:02.066Z,21.86
2017-10-01T19:07:04.508Z,21.85
2017-10-01T19:09:06.984Z,21.84
2017-10-01T19:11:09.416Z,21.77
2017-10-01T19:13:11.853Z,21.80
2017-10-01T19:15:14.329Z,21.80
2017-10-01T19:17:16.765Z,21.78
2017-10-01T19:19:19.276Z,21.77
2017-10-01T19:21:21.756Z,21.79
2017-10-01T19:23:24.212Z,21.77
2017-10-01T19:25:26.657Z,21.76
2017-10-01T19:27:29.151Z,21.78
2017-10-01T19:29:31.598Z,21.80
2017-10-01T19:31:34.063Z,21.75
2017-10-01T19:33:36.547Z,21.77
2017-10-01T19:35:39.008Z,21.73
2017-10-01T19:37:41.468Z,21.78
2017-10-01T19:39:43.962Z,21.82
2017-10-01T19:41:46.414Z,21.77
2017-10-01T19:43:48.858Z,21.73
2017-10-01T19:45:51.325Z,21.75
2017-10-01T19:47:53.798Z,21.72
2017-10-01T19:49:56.348Z,21.71
2017-10-01T19:51:58.853Z,21.68
2017-10-01T19:54:01.308Z,21.69
2017-10-01T19:56:03.755Z,21.68
2017-10-01T19:58:06.228Z,21.72
2017-10-01T20:00:08.673Z,21.69
2017-10-01T20:02:11.108Z,21.69
2017-10-01T20:04:13.616Z,21.69
2017-10-01T20:06:16.053Z,21.74
2017-10-01T20:08:18.494Z,21.71
2017-10-01T20:10:20.995Z,21.71
2017-10-01T20:12:23.467Z,21.72
2017-10-01T20:14:25.980Z,21.71
2017-10-01T20:16:28.448Z,21.74
2017-10-01T20:18:30.899Z,21.77
2017-10-01T20:20:34.270Z,21.69
2017-10-01T20:22:36.734Z,21.73
2017-10-01T20:24:39.301Z,21.71
2017-10-01T20:26:41.816Z,21.74
2017-10-01T20:28:44.280Z,21.74
2017-10-01T20:30:46.727Z,21.73
2017-10-01T20:32:49.174Z,21.75
2017-10-01T20:34:51.696Z,21.74
2017-10-01T20:36:54.137Z,21.75
2017-10-01T20:38:56.578Z,21.74
2017-10-01T20:40:59.932Z,21.71
2017-10-01T20:43:02.379Z,21.72
2017-10-01T20:45:04.824Z,21.70
2017-10-01T20:47:07.297Z,21.69
2017-10-01T20:49:09.736Z,21.76
2017-10-01T20:51:12.172Z,21.77
2017-10-01T20:53:14.635Z,21.71
2017-10-01T20:55:17.079Z,21.69
2017-10-01T20:57:19.591Z,21.72
2017-10-01T20:59:22.070Z,21.74
2017-10-01T21:01:24.519Z,21.74
2017-10-01T21:03:27.014Z,21.76
2017-10-01T21:05:29.572Z,21.73
2017-10-01T21:07:32.022Z,21.71
2017-10-01T21:09:34.481Z,21.71
2017-10-01T21:11:36.945Z,21.69
2017-10-01T21:13:39.449Z,21.70
2017-10-01T21:15:41.925Z,21.73
2017-10-01T21:17:44.512Z,21.68
2017-10-01T21:19:47.091Z,21.71
2017-10-01T21:21:49.539Z,21.70
2017-10-01T21:23:52.109Z,21.62
2017-10-01T21:25:54.544Z,21.65
2017-10-01T21:27:56.980Z,21.70
2017-10-01T21:29:59.442Z,21.71
2017-10-01T21:32:01.884Z,21.68
2017-10-01T21:34:04.365Z,21.70
2017-10-01T21:36:06.884Z,21.72
2017-10-01T21:38:09.341Z,21.73
2017-10-01T21:40:11.773Z,21.71
2017-10-01T21:42:14.238Z,21.68
2017-10-01T21:44:16.742Z,21.66
2017-10-01T21:46:19.287Z,21.70
2017-10-01T21:48:21.768Z,21.69
2017-10-01T21:50:24.246Z,21.68
2017-10-01T21:52:26.680Z,21.67
2017-10-01T21:54:29.144Z,21.63
2017-10-01T21:56:31.586Z,21.66
2017-10-01T21:58:34.050Z,21.69
2017-10-01T22:00:36.563Z,21.69
2017-10-01T22:02:39.025Z,21.68
2017-10-01T22:04:41.467Z,21.65
2017-10-01T22:06:43.957Z,21.65
2017-10-01T22:08:46.398Z,21.65
2017-10-01T22:10:48.853Z,21.69
2017-10-01T22:12:51.380Z,21.67
2017-10-01T22:14:53.856Z,21.69
2017-10-01T22:16:56.287Z,21.68
2017-10-01T22:18:58.737Z,21.67
2017-10-01T22:21:01.168Z,21.68
2017-10-01T22:23:03.625Z,21.72
2017-10-01T22:25:06.097Z,21.75
2017-10-01T22:27:08.533Z,21.71
2017-10-01T22:29:10.979Z,21.69
2017-10-01T22:31:13.442Z,21.60
2017-10-01T22:33:15.875Z,21.59
2017-10-01T22:35:18.322Z,21.64
2017-10-01T22:37:20.820Z,21.68
2017-10-01T22:39:23.261Z,21.63
2017-10-01T22:41:25.693Z,21.62
2017-10-01T22:43:28.152Z,21.66
2017-10-01T22:45:30.606Z,21.65
2017-10-01T22:47:33.054Z,21.67
2017-10-01T22:49:35.541Z,21.68
2017-10-01T22:51:37.981Z,21.70
2017-10-01T22:53:40.426Z,21.64
2017-10-01T22:55:42.896Z,21.67
2017-10-01T22:57:45.330Z,21.68
2017-10-01T22:59:47.771Z,21.64
2017-10-01T23:01:50.228Z,21.59
2017-10-01T23:03:52.730Z,21.63
2017-10-01T23:05:55.163Z,21.64
2017-10-01T23:07:57.770Z,21.63
2017-10-01T23:10:00.203Z,21.69
2017-10-01T23:12:02.644Z,21.68
2017-10-01T23:14:05.100Z,21.58
2017-10-01T23:16:07.544Z,21.57
2017-10-01T23:18:09.990Z,21.66
2017-10-01T23:20:12.450Z,21.63
2017-10-01T23:22:14.903Z,21.64
2017-10-01T23:24:17.350Z,21.64
2017-10-01T23:26:19.810Z,21.64
2017-10-01T23:28:22.276Z,21.55
2017-10-01T23:30:24.720Z,21.57
2017-10-01T23:32:27.206Z,21.55
2017-10-01T23:34:29.649Z,21.55
2017-10-01T23:36:32.080Z,21.59
2017-10-01T23:38:34.625Z,21.56
2017-10-01T23:40:37.060Z,21.60
2017-10-01T23:42:39.490Z,21.54
2017-10-01T23:44:41.952Z,21.53
2017-10-01T23:46:44.391Z,21.59
2017-10-01T23:48:46.937Z,21.58
2017-10-01T23:50:49.391Z,21.60
2017-10-01T23:52:51.846Z,21.62
2017-10-01T23:54:54.396Z,21.58
2017-10-01T23:56:56.971Z,21.58
2017-10-01T23:58:59.429Z,21.64
